Small, Idaho
Current Conditions -  °F | °C
As of 1:53 AM on Thursday 23 Oct 2014 (Local Time) from KRXE Reporting Station
Broken Clouds Broken Clouds  
Wind Chill: 31°   Ceiling: 9000
Heat Index: 35°   Visibility: 10mi
Dew Point: 29°   Wind: 5mph
Humidity: 78%   Direction: 60°ENE
Pressure: 30.14"   Gusts: NA
Location:  44.2396°N, 112.579°W
Report Text: KRXE 230753Z AUTO 06004KT 10SM BKN090 02/M02 A3014 RMK AO2 SLP208 T00171017
Loading
Personal Weather Stations






























Interactive Weather Map
Tropical Storm Tracking
New forecast layout! Learn more

10-Day Weather Forecast

Advertisements
Track Severe Weather on mobile